Strona główna
METAR-TAF:

METAR-TAF

Lotnisko :

Winchester Regional Airport

Winchester, Wirginia, Stany Zjednoczone

Szerokość geograficzna: 39-09N, Długość geograficzna: 078-09W, wysokość: 222 m

Aktualna obserwacja pogody

Raport powstał 36 minut temu, godzina 16:55 UTC
Wiatr 4 kt od południe
Temperatura 29°C
Wilgotność 52%
Ciśnienie 1012 hPa
Widzialność: 16.1 km
Przerywane chmury na wysokości 4800 ft
Zachmurzenie całkowite na wysokości 6500 ft

METAR: KOKV 241655Z AUTO 17004KT 10SM BKN048 OVC065 29/18 A2989 RMK AO2

czas: 13:31 (17:31 UTC)


TAF: brakujący

Obserwacja i prognoza pogody dla ponad 4000 lotnisk (raport METAR i TAF).

Dostępne stacje oznaczono żółtymi i czerwonymi punktami na mapie.

Najedź kursorem aby zobaczyć nazwę stacji.

Kliknij aby zobaczyć obserwacje i prognozy pogody.

Aby zmienić mapę: kliknij na zielony przycisk z czarnym krzyżykiem, aby powiększyć; na zielony przycisk z myślnikiem, aby pomniejszyć; na zielone strzałki, aby przejść do map sąsiednich.


METAR-TAF: